Time;durP1;ratioP1;P1;durP2;ratioP2;P2;SDS_P1;SDS_P2;PMS_P1;PMS_P2;Temp;Humidity;BMP_temperature;BMP_pressure;BME280_temperature;BME280_humidity;BME280_pressure;Samples;Min_cycle;Max_cycle;Signal;HPM_P1;HPM_P2
2024/02/22 00:00:09;;;;;;;11.48;9.52;;;;;;;5.96;73.58;93913.16;521488;28;928;-68
2024/02/22 00:00:25;;;;;;;11.52;9.57;;;;;;;5.95;73.67;93917.16;521462;28;1033;-68
2024/02/22 00:00:40;;;;;;;12.13;9.93;;;;;;;5.94;73.78;93912.19;521557;28;820;-68
2024/02/22 00:00:56;;;;;;;12.55;10.25;;;;;;;5.94;73.49;93915.66;521456;28;1020;-68
2024/02/22 00:01:11;;;;;;;12.30;10.60;;;;;;;5.93;73.54;93913.44;521380;28;790;-68
2024/02/22 00:01:27;;;;;;;11.52;10.05;;;;;;;5.66;73.38;93871.22;521451;28;861;-68
2024/02/22 00:01:45;;;;;;;11.27;10.07;;;;;;;5.89;73.38;93918.44;521493;28;801;-68
2024/02/22 00:02:00;;;;;;;11.13;9.82;;;;;;;5.88;73.73;93912.22;521476;28;916;-68
2024/02/22 00:02:19;;;;;;;10.77;9.07;;;;;;;5.89;73.59;93916.44;521452;28;900;-68
2024/02/22 00:02:35;;;;;;;11.82;9.63;;;;;;;5.88;73.61;93912.22;521270;28;904;-68
2024/02/22 00:02:51;;;;;;;12.15;9.57;;;;;;;5.88;73.60;93916.94;521494;28;861;-68
2024/02/22 00:03:06;;;;;;;10.37;8.73;;;;;;;5.87;73.60;93913.47;521475;28;841;-68
2024/02/22 00:03:21;;;;;;;10.70;8.85;;;;;;;5.86;73.65;93913.97;521361;28;830;-68
2024/02/22 00:03:38;;;;;;;11.80;9.20;;;;;;;5.82;73.54;93914.22;521276;28;858;-68
2024/02/22 00:03:53;;;;;;;12.20;9.68;;;;;;;5.76;73.69;93912.75;521328;28;927;-68
2024/02/22 00:04:08;;;;;;;11.70;9.37;;;;;;;5.71;73.79;93914.28;521297;28;778;-68
2024/02/22 00:04:24;;;;;;;10.73;9.00;;;;;;;5.63;73.64;93913.31;521237;28;872;-68
2024/02/22 00:04:39;;;;;;;10.33;8.73;;;;;;;5.56;73.89;93908.38;521212;28;790;-68
2024/02/22 00:04:55;;;;;;;10.70;9.13;;;;;;;5.47;74.49;93914.13;521363;28;821;-68
2024/02/22 00:05:11;;;;;;;11.20;9.50;;;;;;;5.38;74.33;93901.47;521175;28;858;-68
2024/02/22 00:05:26;;;;;;;10.73;9.10;;;;;;;5.29;74.67;93903.75;521206;28;1051;-68
2024/02/22 00:05:41;;;;;;;10.20;9.00;;;;;;;5.25;75.37;93911.47;521249;28;821;-68
2024/02/22 00:05:57;;;;;;;11.27;9.38;;;;;;;5.19;75.23;93910.75;521195;28;872;-68
2024/02/22 00:06:13;;;;;;;11.70;9.17;;;;;;;5.15;75.74;93905.56;521317;28;950;-68
2024/02/22 00:06:29;;;;;;;9.07;7.72;;;;;;;5.14;75.94;93914.25;521340;28;1030;-68
2024/02/22 00:06:45;;;;;;;8.00;7.20;;;;;;;5.10;75.93;93911.03;518865;28;1265;-68
2024/02/22 00:07:00;;;;;;;8.37;7.43;;;;;;;5.07;76.29;93910.03;519073;28;790;-68
2024/02/22 00:07:16;;;;;;;8.82;7.40;;;;;;;5.04;76.53;93911.06;519110;28;845;-68
2024/02/22 00:07:31;;;;;;;8.93;7.40;;;;;;;5.04;76.65;93908.31;519065;28;832;-68
2024/02/22 00:07:47;;;;;;;8.77;7.50;;;;;;;5.03;76.70;93914.28;519051;28;971;-68
2024/02/22 00:08:02;;;;;;;8.73;7.83;;;;;;;5.02;76.49;93910.06;519094;28;849;-68
2024/02/22 00:08:18;;;;;;;8.65;7.75;;;;;;;5.01;76.82;93906.56;519025;28;862;-68
2024/02/22 00:08:33;;;;;;;9.03;7.97;;;;;;;5.03;76.96;93914.28;519492;28;853;-68
2024/02/22 00:08:48;;;;;;;9.73;8.50;;;;;;;5.04;76.71;93910.31;521241;28;845;-68
2024/02/22 00:09:04;;;;;;;10.07;8.33;;;;;;;5.04;76.56;93908.31;521224;28;758;-68
2024/02/22 00:09:19;;;;;;;10.55;8.15;;;;;;;5.07;76.73;93912.03;521242;28;806;-68
2024/02/22 00:09:35;;;;;;;10.60;8.23;;;;;;;5.09;76.99;93912.28;521143;28;853;-68
2024/02/22 00:09:51;;;;;;;10.67;8.47;;;;;;;5.11;76.84;93904.31;521305;28;797;-68
2024/02/22 00:10:08;;;;;;;10.88;8.95;;;;;;;5.14;76.52;93914.25;521207;28;991;-68
2024/02/22 00:10:28;;;;;;;11.35;9.30;;;;;;;5.16;76.70;93912.50;521276;28;829;-68
2024/02/22 00:10:45;;;;;;;11.25;8.82;;;;;;;5.20;76.34;93907.50;521323;28;1298;-68
2024/02/22 00:11:01;;;;;;;11.77;9.15;;;;;;;5.00;76.48;93879.72;521244;28;856;-68
2024/02/22 00:11:16;;;;;;;10.77;9.18;;;;;;;5.28;76.40;93913.22;521264;28;848;-68
2024/02/22 00:11:32;;;;;;;9.98;8.68;;;;;;;5.29;76.39;93909.22;521351;28;1120;-68
2024/02/22 00:11:47;;;;;;;10.70;8.67;;;;;;;5.30;76.10;93908.75;521204;28;837;-68
2024/02/22 00:12:04;;;;;;;10.23;8.52;;;;;;;5.33;76.19;93907.72;521318;28;813;-68
2024/02/22 00:12:19;;;;;;;10.35;8.70;;;;;;;5.35;75.96;93910.69;521296;28;908;-68
2024/02/22 00:12:38;;;;;;;10.77;8.73;;;;;;;5.35;75.88;93904.47;521201;28;817;-68
2024/02/22 00:12:54;;;;;;;11.00;8.32;;;;;;;5.39;75.71;93913.19;521254;28;849;-68
2024/02/22 00:13:10;;;;;;;11.52;8.75;;;;;;;5.42;75.55;93912.16;521302;28;924;-68
2024/02/22 00:13:26;;;;;;;10.20;8.40;;;;;;;5.21;75.60;93875.41;521297;28;818;-68
2024/02/22 00:13:41;;;;;;;11.77;8.10;;;;;;;5.46;75.51;93909.91;521118;28;1190;-68
2024/02/22 00:13:57;;;;;;;12.05;8.80;;;;;;;5.48;75.59;93907.41;521191;28;861;-68
2024/02/22 00:14:14;;;;;;;11.03;8.77;;;;;;;5.50;75.56;93913.13;521339;28;869;-68
2024/02/22 00:14:29;;;;;;;11.30;8.65;;;;;;;5.52;75.70;93915.38;521269;28;925;-68
2024/02/22 00:14:44;;;;;;;10.25;8.63;;;;;;;5.53;75.36;93906.63;521292;28;817;-68
2024/02/22 00:15:00;;;;;;;9.80;8.77;;;;;;;5.54;75.46;93912.88;521288;28;980;-68
2024/02/22 00:15:16;;;;;;;10.95;9.07;;;;;;;5.52;75.15;93905.16;521162;28;786;-68
2024/02/22 00:15:31;;;;;;;11.63;9.33;;;;;;;5.46;75.29;93907.16;521256;28;821;-68
2024/02/22 00:15:47;;;;;;;11.02;9.50;;;;;;;5.45;75.10;93910.41;521295;28;793;-68
2024/02/22 00:16:03;;;;;;;10.87;9.67;;;;;;;5.31;75.28;93893.03;521264;28;978;-68
2024/02/22 00:16:19;;;;;;;11.05;9.85;;;;;;;5.45;75.19;93907.66;521174;28;949;-68
2024/02/22 00:16:34;;;;;;;12.25;9.70;;;;;;;5.45;75.18;93911.16;521261;28;786;-68
2024/02/22 00:16:50;;;;;;;12.20;9.60;;;;;;;5.45;75.13;93911.16;521331;28;829;-68
2024/02/22 00:17:06;;;;;;;10.57;9.37;;;;;;;5.47;74.95;93908.66;521240;28;837;-68
2024/02/22 00:17:21;;;;;;;10.75;9.30;;;;;;;5.48;74.95;93906.69;521278;28;818;-68
2024/02/22 00:17:37;;;;;;;11.75;10.10;;;;;;;5.50;75.07;93904.19;521205;28;786;-68
2024/02/22 00:17:52;;;;;;;10.87;9.47;;;;;;;5.50;74.92;93907.63;521194;28;786;-68
2024/02/22 00:18:08;;;;;;;10.23;8.90;;;;;;;5.52;74.83;93904.41;521233;28;873;-68
2024/02/22 00:18:23;;;;;;;10.70;9.60;;;;;;;5.54;74.70;93904.66;521223;28;777;-68
2024/02/22 00:18:39;;;;;;;10.48;9.18;;;;;;;5.55;74.79;93901.41;521261;28;865;-68
2024/02/22 00:18:54;;;;;;;9.93;8.27;;;;;;;5.57;74.59;93903.63;521321;28;892;-68
2024/02/22 00:19:10;;;;;;;9.45;8.43;;;;;;;5.57;74.39;93903.63;521378;28;797;-68
2024/02/22 00:19:25;;;;;;;9.27;8.30;;;;;;;5.58;74.30;93902.38;521405;28;896;-68
2024/02/22 00:19:40;;;;;;;8.37;7.57;;;;;;;5.58;73.95;93907.88;521352;28;826;-68
2024/02/22 00:19:56;;;;;;;8.27;7.43;;;;;;;5.58;74.23;93908.63;521470;28;781;-68
2024/02/22 00:20:13;;;;;;;8.53;7.43;;;;;;;5.59;73.98;93901.88;521454;28;845;-68
2024/02/22 00:20:29;;;;;;;7.53;6.72;;;;;;;5.60;73.86;93908.09;521253;28;940;-68
2024/02/22 00:20:44;;;;;;;7.10;6.40;;;;;;;5.60;73.79;93902.63;521408;28;853;-68
2024/02/22 00:21:00;;;;;;;6.72;6.03;;;;;;;5.60;73.73;93908.84;521431;28;820;-68
2024/02/22 00:21:15;;;;;;;6.80;6.10;;;;;;;5.60;73.91;93902.63;521406;28;771;-68
2024/02/22 00:21:30;;;;;;;6.57;5.93;;;;;;;5.60;73.92;93899.88;521517;28;814;-68
2024/02/22 00:21:46;;;;;;;6.72;6.03;;;;;;;5.60;73.63;93905.38;521392;28;932;-68
2024/02/22 00:22:01;;;;;;;6.87;6.17;;;;;;;5.60;73.87;93900.63;521334;28;890;-68
2024/02/22 00:22:17;;;;;;;6.85;6.18;;;;;;;5.61;73.88;93904.84;521435;28;773;-68
2024/02/22 00:22:32;;;;;;;6.60;5.90;;;;;;;5.62;73.72;93905.59;521507;28;853;-68
2024/02/22 00:22:48;;;;;;;6.95;6.25;;;;;;;5.63;73.78;93904.38;521354;28;952;-68
2024/02/22 00:23:05;;;;;;;7.97;7.13;;;;;;;5.62;73.64;93897.38;521471;28;778;-68
2024/02/22 00:23:21;;;;;;;8.15;7.25;;;;;;;5.63;73.82;93902.34;521376;28;849;-68
2024/02/22 00:23:36;;;;;;;7.80;7.00;;;;;;;5.64;73.91;93905.84;521438;28;873;-68
2024/02/22 00:23:52;;;;;;;7.88;7.07;;;;;;;5.63;73.84;93893.41;521424;28;790;-68
2024/02/22 00:24:07;;;;;;;8.37;7.47;;;;;;;5.63;73.88;93902.34;521570;28;781;-68
2024/02/22 00:24:23;;;;;;;8.60;7.78;;;;;;;5.62;74.17;93900.13;521448;28;754;-68
2024/02/22 00:24:38;;;;;;;8.40;7.40;;;;;;;5.61;74.06;93902.09;521362;28;805;-68
2024/02/22 00:24:53;;;;;;;7.60;6.77;;;;;;;5.61;74.14;93902.09;521364;28;917;-68
2024/02/22 00:25:09;;;;;;;8.00;6.93;;;;;;;5.61;74.06;93896.63;521424;28;817;-68
2024/02/22 00:25:24;;;;;;;7.70;6.77;;;;;;;5.61;74.25;93901.38;521309;28;880;-68
2024/02/22 00:25:40;;;;;;;7.53;6.82;;;;;;;5.62;74.21;93898.13;521402;28;876;-68
2024/02/22 00:25:55;;;;;;;7.43;6.70;;;;;;;5.63;74.15;93902.34;521445;28;849;-68
2024/02/22 00:26:14;;;;;;;7.75;6.82;;;;;;;5.64;74.27;93901.13;521336;28;786;-68
2024/02/22 00:26:29;;;;;;;8.55;7.40;;;;;;;5.63;73.96;93896.88;521452;28;923;-68
2024/02/22 00:26:45;;;;;;;7.82;6.97;;;;;;;5.64;74.00;93898.38;521372;28;849;-68
2024/02/22 00:27:00;;;;;;;7.90;7.10;;;;;;;5.65;73.89;93899.84;521375;28;836;-68
2024/02/22 00:27:16;;;;;;;7.80;7.00;;;;;;;5.66;73.88;93900.59;521457;28;848;-68
2024/02/22 00:27:33;;;;;;;7.00;6.30;;;;;;;5.64;73.77;93900.34;521331;28;788;-68
2024/02/22 00:27:49;;;;;;;6.90;6.20;;;;;;;5.39;73.75;93859.16;521416;28;872;-68
2024/02/22 00:28:04;;;;;;;6.93;6.23;;;;;;;5.63;73.91;93896.88;521345;28;1915;-68
2024/02/22 00:28:20;;;;;;;7.55;6.75;;;;;;;5.60;73.88;93899.88;521396;28;900;-68
2024/02/22 00:28:35;;;;;;;9.63;7.93;;;;;;;5.57;73.57;93898.91;521383;28;885;-68
2024/02/22 00:28:51;;;;;;;12.05;9.45;;;;;;;5.54;73.85;93890.97;521389;28;769;-68
2024/02/22 00:29:06;;;;;;;12.90;10.00;;;;;;;5.54;73.98;93899.94;521418;28;907;-68
2024/02/22 00:29:21;;;;;;;12.90;10.15;;;;;;;5.55;73.90;93895.16;521484;28;750;-68
2024/02/22 00:29:37;;;;;;;14.40;11.30;;;;;;;5.54;74.06;93896.44;521328;28;852;-68
2024/02/22 00:29:52;;;;;;;17.20;12.97;;;;;;;5.55;74.17;93892.44;521425;28;762;-68
2024/02/22 00:30:14;;;;;;;17.75;13.23;;;;;;;5.56;74.19;93889.22;521395;28;892;-68
2024/02/22 00:30:30;;;;;;;14.32;11.00;;;;;;;5.57;74.22;93896.16;521247;28;858;-68
2024/02/22 00:30:45;;;;;;;12.77;10.20;;;;;;;5.58;74.28;93892.19;521418;28;869;-68
2024/02/22 00:31:00;;;;;;;11.90;9.90;;;;;;;5.59;73.96;93887.47;521448;28;777;-68
2024/02/22 00:31:16;;;;;;;11.23;9.40;;;;;;;5.60;73.79;93895.16;521399;28;868;-68
2024/02/22 00:31:31;;;;;;;10.57;8.60;;;;;;;5.59;73.74;93893.66;521398;28;785;-68
2024/02/22 00:31:47;;;;;;;9.18;7.78;;;;;;;5.59;73.68;93893.66;521342;28;849;-68
2024/02/22 00:32:03;;;;;;;9.63;7.67;;;;;;;5.60;73.54;93889.69;521431;28;777;-68
2024/02/22 00:32:19;;;;;;;9.00;7.43;;;;;;;5.59;73.49;93893.66;521451;28;880;-69
2024/02/22 00:32:35;;;;;;;8.03;7.23;;;;;;;5.57;73.47;93892.66;521416;28;872;-68
2024/02/22 00:32:50;;;;;;;7.75;6.97;;;;;;;5.55;73.34;93890.44;521380;28;765;-68
2024/02/22 00:33:06;;;;;;;7.82;6.72;;;;;;;5.50;73.60;93887.75;521361;28;1009;-68
2024/02/22 00:33:21;;;;;;;8.07;6.60;;;;;;;5.47;73.51;93894.22;521375;28;869;-68
2024/02/22 00:33:37;;;;;;;6.93;6.18;;;;;;;5.44;73.95;93890.50;521403;28;844;-68
2024/02/22 00:33:52;;;;;;;6.90;6.20;;;;;;;5.43;73.89;93891.75;521466;28;821;-68
2024/02/22 00:34:08;;;;;;;6.97;6.15;;;;;;;5.42;73.78;93890.25;521415;28;911;-68
2024/02/22 00:34:23;;;;;;;6.20;5.50;;;;;;;5.43;73.71;93893.75;521381;28;778;-68
2024/02/22 00:34:38;;;;;;;6.30;5.70;;;;;;;5.44;73.79;93890.50;521400;28;864;-68
2024/02/22 00:34:54;;;;;;;6.40;5.72;;;;;;;5.44;74.00;93897.97;521428;28;805;-68
2024/02/22 00:35:10;;;;;;;6.17;5.17;;;;;;;5.22;73.97;93850.28;521403;28;757;-68
2024/02/22 00:35:26;;;;;;;6.07;5.05;;;;;;;5.45;74.15;93883.03;521352;28;868;-68
2024/02/22 00:35:42;;;;;;;5.63;5.00;;;;;;;5.45;74.06;93897.47;521319;28;883;-68
2024/02/22 00:35:57;;;;;;;5.68;5.00;;;;;;;5.45;74.09;93894.72;521294;28;833;-68
2024/02/22 00:36:13;;;;;;;6.40;5.30;;;;;;;5.46;74.16;93892.75;521433;28;852;-68
2024/02/22 00:36:29;;;;;;;6.70;5.67;;;;;;;5.45;74.07;93889.25;521463;28;873;-68
2024/02/22 00:36:44;;;;;;;7.90;6.75;;;;;;;5.45;74.46;93893.97;521349;28;801;-68
2024/02/22 00:36:59;;;;;;;9.90;8.30;;;;;;;5.45;74.11;93893.97;521367;28;900;-68
2024/02/22 00:37:15;;;;;;;10.40;8.70;;;;;;;5.45;74.33;93889.25;521324;28;907;-68
2024/02/22 00:37:32;;;;;;;9.60;8.37;;;;;;;5.31;74.46;93868.41;521400;28;825;-68
2024/02/22 00:37:47;;;;;;;8.95;8.05;;;;;;;5.47;74.26;93889.50;521394;28;892;-68
2024/02/22 00:38:03;;;;;;;10.25;8.63;;;;;;;5.46;74.32;93888.00;521432;28;822;-68
2024/02/22 00:38:18;;;;;;;11.13;9.43;;;;;;;5.48;74.41;93887.50;521381;28;797;-68
2024/02/22 00:38:34;;;;;;;10.57;9.35;;;;;;;5.49;74.43;93895.22;521362;28;770;-68
2024/02/22 00:38:49;;;;;;;10.63;9.10;;;;;;;5.48;74.43;93890.97;521389;28;904;-68
2024/02/22 00:39:04;;;;;;;11.30;9.25;;;;;;;5.34;74.30;93865.41;521425;28;789;-68
2024/02/22 00:39:20;;;;;;;11.93;9.70;;;;;;;5.50;74.23;93887.75;521393;28;891;-68
2024/02/22 00:39:36;;;;;;;12.33;10.10;;;;;;;5.49;74.33;93888.97;521377;28;957;-68
2024/02/22 00:39:51;;;;;;;11.70;9.00;;;;;;;5.50;74.26;93891.22;521341;28;807;-68
2024/02/22 00:40:14;;;;;;;11.48;8.93;;;;;;;5.48;74.21;93888.22;521353;28;762;-68
2024/02/22 00:40:29;;;;;;;12.10;9.70;;;;;;;5.48;74.60;93885.50;521328;28;916;-68
2024/02/22 00:40:45;;;;;;;10.70;9.07;;;;;;;5.49;74.43;93888.97;521401;28;841;-68
2024/02/22 00:41:00;;;;;;;10.95;9.07;;;;;;;5.50;74.62;93890.47;521395;28;967;-68
2024/02/22 00:41:16;;;;;;;12.20;9.37;;;;;;;5.50;74.62;93888.47;521351;28;844;-68
2024/02/22 00:41:31;;;;;;;13.03;9.80;;;;;;;5.42;74.37;93895.72;521428;28;886;-68
2024/02/22 00:41:47;;;;;;;11.90;9.63;;;;;;;5.39;74.15;93885.81;521378;28;786;-68
2024/02/22 00:42:02;;;;;;;10.57;9.23;;;;;;;5.37;74.18;93886.28;521397;28;801;-68
2024/02/22 00:42:18;;;;;;;10.30;8.65;;;;;;;5.38;74.24;93881.56;521380;28;865;-68
2024/02/22 00:42:34;;;;;;;9.43;7.37;;;;;;;5.38;74.21;93885.06;521417;28;908;-68
2024/02/22 00:42:49;;;;;;;9.85;7.38;;;;;;;5.39;74.45;93880.31;521291;28;828;-68
2024/02/22 00:43:05;;;;;;;9.77;7.77;;;;;;;5.40;74.27;93881.81;521441;28;773;-68
2024/02/22 00:43:20;;;;;;;8.63;6.80;;;;;;;5.41;73.97;93879.81;521414;28;912;-68
2024/02/22 00:43:36;;;;;;;8.23;5.40;;;;;;;5.43;74.25;93885.53;521297;28;1005;-68
2024/02/22 00:43:53;;;;;;;7.70;5.10;;;;;;;5.43;73.80;93883.53;521350;28;1290;-68
2024/02/22 00:44:08;;;;;;;6.85;5.40;;;;;;;5.44;73.58;93882.28;521345;28;892;-68
2024/02/22 00:44:24;;;;;;;6.90;5.43;;;;;;;5.46;73.87;93884.53;519667;28;1155;-68
2024/02/22 00:44:39;;;;;;;7.50;5.70;;;;;;;5.47;73.63;93883.25;519303;28;817;-68
2024/02/22 00:44:55;;;;;;;8.38;6.20;;;;;;;5.47;73.87;93880.53;519407;28;860;-68
2024/02/22 00:45:12;;;;;;;8.65;7.05;;;;;;;5.45;73.57;93881.03;519416;28;1596;-68
2024/02/22 00:45:28;;;;;;;8.60;7.70;;;;;;;5.44;73.56;93879.53;519133;28;870;-68
2024/02/22 00:45:43;;;;;;;8.60;7.60;;;;;;;5.41;73.77;93882.56;519224;28;873;-68
2024/02/22 00:45:59;;;;;;;7.93;7.10;;;;;;;5.43;74.02;93883.53;519336;28;762;-68
2024/02/22 00:46:14;;;;;;;8.17;7.27;;;;;;;5.44;73.73;93873.31;519405;28;798;-68
2024/02/22 00:46:30;;;;;;;9.68;7.80;;;;;;;5.43;73.75;93875.31;517039;28;2410;-68
2024/02/22 00:46:46;;;;;;;9.80;7.93;;;;;;;5.44;73.86;93879.53;517210;28;790;-68
2024/02/22 00:47:01;;;;;;;9.98;7.80;;;;;;;5.45;74.19;93877.56;517512;28;1200;-68
2024/02/22 00:47:17;;;;;;;10.57;7.88;;;;;;;5.46;74.16;93884.53;519182;28;1024;-68
2024/02/22 00:47:32;;;;;;;8.97;7.57;;;;;;;5.46;73.90;93877.03;519197;28;1131;-68
2024/02/22 00:47:47;;;;;;;9.90;7.55;;;;;;;5.46;74.15;93877.03;519162;28;793;-68
2024/02/22 00:48:03;;;;;;;10.70;8.20;;;;;;;5.47;74.33;93872.31;519193;28;798;-68
2024/02/22 00:48:19;;;;;;;10.50;9.40;;;;;;;5.44;73.91;93882.28;519496;28;1938;-68
2024/02/22 00:48:34;;;;;;;11.43;10.30;;;;;;;5.40;73.97;93881.81;521253;28;1487;-68
2024/02/22 00:48:50;;;;;;;11.70;10.45;;;;;;;5.36;73.96;93875.84;521354;28;881;-68
2024/02/22 00:49:05;;;;;;;12.70;10.50;;;;;;;5.35;74.44;93874.34;521405;28;754;-68
2024/02/22 00:49:21;;;;;;;12.88;10.63;;;;;;;5.35;74.22;93874.34;521478;28;865;-68
2024/02/22 00:49:36;;;;;;;12.73;10.57;;;;;;;5.34;74.10;93873.63;521315;28;757;-68
2024/02/22 00:49:52;;;;;;;13.88;10.23;;;;;;;5.33;74.49;93872.13;521347;28;809;-68
2024/02/22 00:50:08;;;;;;;13.23;10.27;;;;;;;5.21;74.31;93853.50;521408;28;762;-68
2024/02/22 00:50:23;;;;;;;11.32;10.10;;;;;;;5.35;74.25;93872.38;521390;28;837;-68
2024/02/22 00:50:39;;;;;;;11.30;9.32;;;;;;;5.34;74.44;93872.88;521285;28;774;-68
2024/02/22 00:50:54;;;;;;;11.17;9.07;;;;;;;5.33;74.32;93879.59;521390;28;852;-68
2024/02/22 00:51:10;;;;;;;11.27;9.55;;;;;;;5.33;74.49;93879.59;521292;28;860;-68
2024/02/22 00:51:25;;;;;;;11.07;9.37;;;;;;;5.32;74.44;93878.84;521474;28;798;-68
2024/02/22 00:51:40;;;;;;;11.32;9.15;;;;;;;5.32;74.33;93864.41;521396;28;849;-68
2024/02/22 00:51:56;;;;;;;11.20;9.23;;;;;;;5.33;74.44;93871.38;521421;28;920;-68
2024/02/22 00:52:11;;;;;;;11.23;8.93;;;;;;;5.33;74.43;93869.38;521381;28;833;-68
2024/02/22 00:52:28;;;;;;;11.75;9.18;;;;;;;5.33;74.25;93872.13;521311;28;833;-68
2024/02/22 00:52:43;;;;;;;10.32;9.23;;;;;;;5.34;74.34;93867.41;521367;28;969;-68
2024/02/22 00:52:59;;;;;;;9.63;8.57;;;;;;;5.36;74.43;93870.38;521367;28;976;-68
2024/02/22 00:53:16;;;;;;;9.70;8.37;;;;;;;5.35;73.92;93872.38;521381;28;762;-68
2024/02/22 00:53:31;;;;;;;9.68;8.20;;;;;;;5.33;74.36;93869.38;521371;28;923;-68
2024/02/22 00:53:47;;;;;;;9.32;8.05;;;;;;;5.34;73.94;93872.88;521301;28;931;-68
2024/02/22 00:54:02;;;;;;;9.10;8.13;;;;;;;5.32;74.02;93872.63;521441;28;773;-68
2024/02/22 00:54:18;;;;;;;9.52;8.48;;;;;;;5.32;74.20;93872.63;521349;28;793;-68
2024/02/22 00:54:33;;;;;;;8.90;8.00;;;;;;;5.31;73.77;93868.41;521361;28;896;-68
2024/02/22 00:54:49;;;;;;;9.18;8.00;;;;;;;5.30;73.78;93862.19;521306;28;1042;-68
2024/02/22 00:55:05;;;;;;;10.50;8.53;;;;;;;5.32;74.15;93875.38;521396;28;805;-68
2024/02/22 00:55:20;;;;;;;9.73;8.00;;;;;;;5.31;74.08;93880.09;521252;28;972;-68
2024/02/22 00:55:36;;;;;;;9.85;8.05;;;;;;;5.33;73.99;93868.63;521316;28;880;-68
2024/02/22 00:55:51;;;;;;;10.57;8.40;;;;;;;5.34;73.86;93867.41;521433;28;805;-68
2024/02/22 00:56:07;;;;;;;9.77;8.32;;;;;;;5.35;73.62;93866.13;521372;28;916;-68
2024/02/22 00:56:22;;;;;;;8.93;7.93;;;;;;;5.36;73.77;93867.63;521376;28;786;-68
2024/02/22 00:56:38;;;;;;;9.23;7.88;;;;;;;5.25;73.64;93848.53;521335;28;861;-68
2024/02/22 00:56:53;;;;;;;10.20;8.47;;;;;;;5.36;73.58;93864.91;521330;28;880;-68
2024/02/22 00:57:09;;;;;;;10.93;8.63;;;;;;;5.36;73.90;93864.91;521391;28;912;-68
2024/02/22 00:57:24;;;;;;;9.70;8.20;;;;;;;5.33;73.57;93866.66;521422;28;848;-68
2024/02/22 00:57:40;;;;;;;8.97;8.00;;;;;;;5.34;73.92;93868.16;521351;28;928;-68
2024/02/22 00:57:55;;;;;;;10.27;8.13;;;;;;;5.35;74.00;93868.88;521281;28;1015;-68
2024/02/22 00:58:11;;;;;;;10.95;8.63;;;;;;;5.36;73.63;93867.63;521392;28;773;-68
2024/02/22 00:58:26;;;;;;;11.73;8.70;;;;;;;5.37;74.09;93866.41;521390;28;940;-68
2024/02/22 00:58:42;;;;;;;11.77;8.70;;;;;;;5.37;73.79;93871.88;521343;28;770;-68
2024/02/22 00:58:58;;;;;;;10.63;9.27;;;;;;;5.36;73.66;93871.13;521306;28;885;-68
2024/02/22 00:59:13;;;;;;;11.17;9.43;;;;;;;5.35;73.83;93866.88;521399;28;880;-68
2024/02/22 00:59:32;;;;;;;10.73;8.70;;;;;;;5.36;73.96;93862.91;521336;28;804;-68
2024/02/22 00:59:47;;;;;;;10.30;8.57;;;;;;;5.38;73.77;93865.13;521462;28;1185;-68
2024/02/22 01:00:04;;;;;;;10.90;8.90;;;;;;;5.35;73.89;93866.13;521417;28;802;-68
2024/02/22 01:00:20;;;;;;;10.38;8.70;;;;;;;5.37;73.99;93863.66;521345;28;943;-68
2024/02/22 01:00:35;;;;;;;10.00;8.90;;;;;;;5.36;73.99;93871.13;521354;28;809;-68
2024/02/22 01:00:51;;;;;;;10.60;9.10;;;;;;;5.36;74.12;93862.91;521216;28;856;-68
2024/02/22 01:01:07;;;;;;;9.83;8.37;;;;;;;5.36;74.18;93865.66;521365;28;845;-68
2024/02/22 01:01:22;;;;;;;9.95;8.57;;;;;;;5.37;74.14;93869.13;521343;28;877;-68
2024/02/22 01:01:38;;;;;;;11.20;8.82;;;;;;;5.36;74.53;93864.91;521337;28;885;-68
2024/02/22 01:01:53;;;;;;;11.40;8.93;;;;;;;5.37;74.62;93864.38;521265;28;987;-68
2024/02/22 01:02:09;;;;;;;10.68;9.15;;;;;;;5.37;74.32;93871.88;521315;28;821;-68
2024/02/22 01:02:27;;;;;;;10.37;8.97;;;;;;;5.38;74.31;93863.16;521375;28;809;-68
2024/02/22 01:02:43;;;;;;;9.77;8.45;;;;;;;5.38;74.34;93865.88;521395;28;916;-68
2024/02/22 01:02:58;;;;;;;9.53;8.53;;;;;;;5.38;74.32;93859.66;521391;28;817;-68
2024/02/22 01:03:14;;;;;;;9.63;8.38;;;;;;;5.39;74.25;93869.38;521370;28;868;-68
2024/02/22 01:03:31;;;;;;;9.40;7.90;;;;;;;5.39;74.28;93869.38;521300;28;845;-68
2024/02/22 01:03:46;;;;;;;10.02;8.38;;;;;;;5.35;74.32;93860.66;521416;28;904;-68
2024/02/22 01:04:03;;;;;;;10.35;8.45;;;;;;;5.39;74.63;93863.91;521289;28;900;-68
2024/02/22 01:04:18;;;;;;;10.30;8.30;;;;;;;5.40;74.56;93865.38;521321;28;865;-68
2024/02/22 01:04:34;;;;;;;11.25;8.20;;;;;;;5.39;74.32;93863.91;521392;28;1140;-68
2024/02/22 01:04:49;;;;;;;11.20;8.40;;;;;;;5.37;74.31;93860.91;521291;28;880;-68
2024/02/22 01:05:05;;;;;;;9.68;8.40;;;;;;;5.34;74.26;93864.66;521349;28;781;-68
2024/02/22 01:05:20;;;;;;;9.57;8.60;;;;;;;5.29;74.26;93857.22;521330;28;928;-68
2024/02/22 01:05:36;;;;;;;11.88;9.65;;;;;;;5.27;74.46;93862.44;521246;28;833;-68
2024/02/22 01:05:51;;;;;;;12.97;10.20;;;;;;;5.26;74.45;93863.72;521350;28;861;-68
2024/02/22 01:06:10;;;;;;;12.57;10.02;;;;;;;5.25;74.58;93860.22;521363;28;765;-68
2024/02/22 01:06:25;;;;;;;12.85;10.13;;;;;;;5.21;74.31;93859.75;521262;28;922;-68
2024/02/22 01:06:41;;;;;;;12.65;10.23;;;;;;;5.20;74.91;93862.97;521362;28;833;-68
2024/02/22 01:06:58;;;;;;;12.57;9.80;;;;;;;5.17;74.86;93858.50;521405;28;784;-68
2024/02/22 01:07:14;;;;;;;11.88;9.10;;;;;;;5.16;74.92;93859.75;521331;28;936;-68
2024/02/22 01:07:31;;;;;;;12.37;9.37;;;;;;;4.91;74.90;93825.28;521373;28;781;-68
2024/02/22 01:07:46;;;;;;;12.98;9.38;;;;;;;5.15;74.72;93858.28;521319;28;857;-68
2024/02/22 01:08:03;;;;;;;12.33;9.33;;;;;;;5.16;74.95;93854.28;521399;28;876;-68
2024/02/22 01:08:19;;;;;;;11.68;9.75;;;;;;;4.93;74.92;93830.97;521250;28;1922;-68
2024/02/22 01:08:34;;;;;;;12.50;9.87;;;;;;;5.16;74.92;93857.75;521308;28;864;-68
2024/02/22 01:08:50;;;;;;;13.30;10.17;;;;;;;5.19;75.23;93856.75;521369;28;782;-68
2024/02/22 01:09:05;;;;;;;14.43;10.80;;;;;;;5.21;75.13;93861.72;521328;28;1104;-68
2024/02/22 01:09:21;;;;;;;13.68;10.75;;;;;;;5.22;75.07;93860.47;521358;28;840;-68
2024/02/22 01:09:37;;;;;;;15.13;10.83;;;;;;;5.22;74.63;93858.47;521348;28;901;-68
2024/02/22 01:09:52;;;;;;;18.48;12.48;;;;;;;5.23;74.75;93854.50;521361;28;829;-68
2024/02/22 01:10:08;;;;;;;16.75;12.60;;;;;;;5.25;74.97;93862.22;521355;28;770;-68
2024/02/22 01:10:23;;;;;;;16.80;12.30;;;;;;;5.24;74.68;93852.53;521625;28;789;-68
2024/02/22 01:10:39;;;;;;;17.98;12.57;;;;;;;5.23;74.98;93854.50;521722;28;873;-68
2024/02/22 01:10:54;;;;;;;17.53;12.13;;;;;;;5.22;74.96;93855.75;521607;28;920;-68
2024/02/22 01:11:10;;;;;;;17.63;12.05;;;;;;;5.13;75.11;93841.63;521710;28;868;-68
2024/02/22 01:11:25;;;;;;;14.98;11.38;;;;;;;5.20;74.68;93852.00;521682;28;766;-68
2024/02/22 01:11:41;;;;;;;14.77;11.27;;;;;;;5.20;75.08;93850.03;521662;28;888;-68
2024/02/22 01:11:56;;;;;;;15.68;11.05;;;;;;;5.21;74.71;93850.78;521632;28;782;-68
2024/02/22 01:12:12;;;;;;;16.97;11.20;;;;;;;5.21;75.01;93854.25;521696;28;824;-68
2024/02/22 01:12:27;;;;;;;15.80;11.23;;;;;;;5.22;74.73;93852.25;521717;28;845;-68
2024/02/22 01:12:43;;;;;;;13.13;10.27;;;;;;;5.23;74.68;93848.28;519570;28;809;-68
2024/02/22 01:12:58;;;;;;;13.70;10.23;;;;;;;5.24;74.81;93855.25;519512;28;939;-68
2024/02/22 01:13:14;;;;;;;11.73;9.30;;;;;;;5.26;74.85;93855.50;519497;28;786;-68
2024/02/22 01:13:29;;;;;;;9.73;7.97;;;;;;;5.25;74.67;93848.53;519516;28;908;-68
2024/02/22 01:13:48;;;;;;;9.57;8.18;;;;;;;5.26;74.83;93850.75;519526;28;806;-68
2024/02/22 01:14:03;;;;;;;10.07;8.98;;;;;;;5.27;74.86;93846.78;519537;28;829;-68
2024/02/22 01:14:22;;;;;;;10.43;8.50;;;;;;;5.27;74.85;93854.22;519468;28;904;-68
2024/02/22 01:14:38;;;;;;;11.20;8.38;;;;;;;5.27;74.69;93852.25;520664;28;932;-68
2024/02/22 01:14:53;;;;;;;10.63;8.40;;;;;;;5.27;74.81;93846.78;521786;28;805;-68
2024/02/22 01:15:09;;;;;;;10.95;8.57;;;;;;;5.27;74.91;93849.50;521712;28;750;-68
2024/02/22 01:15:24;;;;;;;11.73;9.07;;;;;;;5.28;74.97;93853.00;521643;28;825;-68
2024/02/22 01:15:41;;;;;;;11.77;9.10;;;;;;;5.28;74.68;93847.53;521642;28;774;-68
2024/02/22 01:15:56;;;;;;;12.27;8.80;;;;;;;5.28;75.04;93850.97;521659;28;857;-68
2024/02/22 01:16:12;;;;;;;10.60;8.80;;;;;;;5.30;74.71;93853.22;521703;28;868;-68
2024/02/22 01:16:27;;;;;;;9.83;8.60;;;;;;;5.30;74.81;93853.22;521728;28;861;-68
2024/02/22 01:16:43;;;;;;;11.23;8.95;;;;;;;5.31;74.52;93851.97;521749;28;770;-68
2024/02/22 01:16:58;;;;;;;11.57;9.13;;;;;;;5.32;74.85;93851.47;521725;28;873;-68
2024/02/22 01:17:14;;;;;;;11.80;9.43;;;;;;;5.33;74.92;93849.47;521652;28;841;-68